createdAt,value
2023-04-25T00:00:57.467Z,3.17
2023-04-25T00:02:20.480Z,2.80
2023-04-25T00:03:42.750Z,2.77
2023-04-25T00:05:05.956Z,3.53
2023-04-25T00:06:28.331Z,3.00
2023-04-25T00:07:51.113Z,3.07
2023-04-25T00:09:13.129Z,3.00
2023-04-25T00:10:35.231Z,3.70
2023-04-25T00:11:57.338Z,3.50
2023-04-25T00:13:20.308Z,4.60
2023-04-25T00:14:42.374Z,3.20
2023-04-25T00:16:05.317Z,3.27
2023-04-25T00:17:27.816Z,2.70
2023-04-25T00:18:52.269Z,3.53
2023-04-25T00:20:14.594Z,3.10
2023-04-25T00:21:38.586Z,3.40
2023-04-25T00:23:00.725Z,3.20
2023-04-25T00:24:22.783Z,3.50
2023-04-25T00:25:49.319Z,3.80
2023-04-25T00:27:11.547Z,3.00
2023-04-25T00:28:33.607Z,4.00
2023-04-25T00:29:55.671Z,3.50
2023-04-25T00:31:17.739Z,3.40
2023-04-25T00:32:39.887Z,3.10
2023-04-25T00:34:02.118Z,3.30
2023-04-25T00:35:24.181Z,3.37
2023-04-25T00:36:46.580Z,3.43
2023-04-25T00:38:08.675Z,3.40
2023-04-25T00:39:30.861Z,3.47
2023-04-25T00:40:53.962Z,3.07
2023-04-25T00:42:16.873Z,3.60
2023-04-25T00:43:40.354Z,3.30
2023-04-25T00:45:02.766Z,3.03
2023-04-25T00:46:24.814Z,3.30
2023-04-25T00:47:48.384Z,3.47
2023-04-25T00:49:16.270Z,3.53
2023-04-25T00:50:38.794Z,3.60
2023-04-25T00:52:01.019Z,3.00
2023-04-25T00:53:24.087Z,3.50
2023-04-25T00:54:46.416Z,3.23
2023-04-25T00:56:09.138Z,3.60
2023-04-25T00:57:31.162Z,3.23
2023-04-25T00:58:57.840Z,2.73
2023-04-25T01:00:20.537Z,2.70
2023-04-25T01:01:43.371Z,2.80
2023-04-25T01:03:06.358Z,2.90
2023-04-25T01:04:29.615Z,3.00
2023-04-25T01:05:52.671Z,2.70
2023-04-25T01:07:15.081Z,2.93
2023-04-25T01:08:39.286Z,3.17
2023-04-25T01:10:01.903Z,3.40
2023-04-25T01:11:23.905Z,3.47
2023-04-25T01:12:46.096Z,2.57
2023-04-25T01:14:08.164Z,3.23
2023-04-25T01:15:30.673Z,3.77
2023-04-25T01:16:54.014Z,3.20
2023-04-25T01:18:17.216Z,3.57
2023-04-25T01:19:39.434Z,3.07
2023-04-25T01:21:11.655Z,3.30
2023-04-25T01:22:34.249Z,2.90
2023-04-25T01:23:56.567Z,3.13
2023-04-25T01:25:19.378Z,3.30
2023-04-25T01:26:45.913Z,3.83
2023-04-25T01:28:08.690Z,3.30
2023-04-25T01:29:31.868Z,3.33
2023-04-25T01:30:54.374Z,3.40
2023-04-25T01:32:17.075Z,3.50
2023-04-25T01:33:39.236Z,3.53
2023-04-25T01:35:01.605Z,3.47
2023-04-25T01:36:23.898Z,3.37
2023-04-25T01:37:46.107Z,3.30
2023-04-25T01:39:08.556Z,3.77
2023-04-25T01:40:31.255Z,3.57
2023-04-25T01:41:53.312Z,2.63
2023-04-25T01:43:15.591Z,3.70
2023-04-25T01:44:37.693Z,3.70
2023-04-25T01:46:00.491Z,3.13
2023-04-25T01:47:22.641Z,2.93
2023-04-25T01:48:45.278Z,2.87
2023-04-25T01:50:08.870Z,5.20
2023-04-25T01:51:31.422Z,2.93
2023-04-25T01:52:54.866Z,2.90
2023-04-25T01:54:17.988Z,3.90
2023-04-25T01:55:40.101Z,3.70
2023-04-25T01:57:02.676Z,3.37
2023-04-25T01:58:24.764Z,3.70
2023-04-25T01:59:47.233Z,3.67
2023-04-25T02:01:09.427Z,3.93
2023-04-25T02:02:31.653Z,3.20
2023-04-25T02:03:54.405Z,3.17
2023-04-25T02:05:17.558Z,3.20
2023-04-25T02:06:39.581Z,3.37
2023-04-25T02:08:01.654Z,3.63
2023-04-25T02:09:23.941Z,4.13
2023-04-25T02:10:46.065Z,4.20
2023-04-25T02:12:09.781Z,3.57
2023-04-25T02:13:31.819Z,3.50
2023-04-25T02:14:54.034Z,3.70
2023-04-25T02:16:16.093Z,3.70
2023-04-25T02:17:38.659Z,3.30
2023-04-25T02:19:01.088Z,3.77
2023-04-25T02:20:24.167Z,4.30
2023-04-25T02:21:46.537Z,4.20
2023-04-25T02:23:08.625Z,4.47
2023-04-25T02:24:30.936Z,3.47
2023-04-25T02:25:53.669Z,3.63
2023-04-25T02:27:16.145Z,4.30
2023-04-25T02:28:38.154Z,3.60
2023-04-25T02:30:00.443Z,3.90
2023-04-25T02:31:22.497Z,4.33
2023-04-25T02:32:44.691Z,3.67
2023-04-25T02:34:06.725Z,3.93
2023-04-25T02:35:28.778Z,3.77
2023-04-25T02:36:53.862Z,3.90
2023-04-25T02:38:15.976Z,4.30
2023-04-25T02:39:37.983Z,4.50
2023-04-25T02:41:00.187Z,4.00
2023-04-25T02:42:22.297Z,4.20
2023-04-25T02:43:44.369Z,3.63
2023-04-25T02:45:06.924Z,4.00
2023-04-25T02:46:39.109Z,4.00
2023-04-25T02:48:02.895Z,3.63
2023-04-25T02:49:25.063Z,3.90
2023-04-25T02:50:47.102Z,3.87
2023-04-25T02:52:09.711Z,4.83
2023-04-25T02:53:31.851Z,4.47
2023-04-25T02:54:53.884Z,4.23
2023-04-25T02:56:16.105Z,4.50
2023-04-25T02:57:38.175Z,4.50
2023-04-25T02:59:00.284Z,4.03
2023-04-25T03:00:23.465Z,4.80
2023-04-25T03:01:46.203Z,4.97
2023-04-25T03:03:08.351Z,4.60
2023-04-25T03:04:30.539Z,4.23
2023-04-25T03:05:52.958Z,4.13
2023-04-25T03:07:14.980Z,4.03
2023-04-25T03:08:37.070Z,4.30
2023-04-25T03:09:59.224Z,4.53
2023-04-25T03:11:21.340Z,5.03
2023-04-25T03:12:43.396Z,4.90
2023-04-25T03:14:05.646Z,4.20
2023-04-25T03:15:27.758Z,4.63
2023-04-25T03:16:49.829Z,4.37
2023-04-25T03:18:11.878Z,4.10
2023-04-25T03:19:33.896Z,4.60
2023-04-25T03:20:55.958Z,4.03
2023-04-25T03:22:18.041Z,4.50
2023-04-25T03:23:40.244Z,4.27
2023-04-25T03:25:02.256Z,4.50
2023-04-25T03:26:24.339Z,4.37
2023-04-25T03:27:46.510Z,3.60
2023-04-25T03:29:08.605Z,4.00
2023-04-25T03:30:30.714Z,3.50
2023-04-25T03:31:52.899Z,4.00
2023-04-25T03:33:15.051Z,4.10
2023-04-25T03:34:37.071Z,3.70
2023-04-25T03:35:59.129Z,3.87
2023-04-25T03:37:21.230Z,3.37
2023-04-25T03:38:43.371Z,3.87
2023-04-25T03:40:06.105Z,2.67
2023-04-25T03:41:28.749Z,3.50
2023-04-25T03:42:51.044Z,3.53
2023-04-25T03:44:13.223Z,3.40
2023-04-25T03:45:35.691Z,3.63
2023-04-25T03:46:57.821Z,3.10
2023-04-25T03:48:22.388Z,3.63
2023-04-25T03:49:45.506Z,3.30
2023-04-25T03:51:07.610Z,3.10
2023-04-25T03:52:29.709Z,3.33
2023-04-25T03:53:52.917Z,2.90
2023-04-25T03:55:15.410Z,3.00
2023-04-25T03:56:37.462Z,2.90
2023-04-25T03:57:59.828Z,3.30
2023-04-25T03:59:21.851Z,3.80
2023-04-25T04:00:43.960Z,2.87
2023-04-25T04:02:06.003Z,3.10
2023-04-25T04:03:28.360Z,3.20
2023-04-25T04:04:50.797Z,3.10
2023-04-25T04:06:14.090Z,2.80
2023-04-25T04:07:40.764Z,3.60
2023-04-25T04:09:03.277Z,3.23
2023-04-25T04:10:27.015Z,2.80
2023-04-25T04:11:49.234Z,3.10
2023-04-25T04:13:11.305Z,3.10
2023-04-25T04:14:33.401Z,3.53
2023-04-25T04:15:56.601Z,3.83
2023-04-25T04:17:18.671Z,2.80
2023-04-25T04:18:40.806Z,3.37
2023-04-25T04:20:04.533Z,4.10
2023-04-25T04:21:27.725Z,3.00
2023-04-25T04:22:49.797Z,3.60
2023-04-25T04:24:11.929Z,3.50
2023-04-25T04:25:33.954Z,3.77
2023-04-25T04:26:56.600Z,3.50
2023-04-25T04:28:18.803Z,3.40
2023-04-25T04:29:41.020Z,2.67
2023-04-25T04:31:04.615Z,2.77
2023-04-25T04:32:26.752Z,3.53
2023-04-25T04:33:49.343Z,3.60
2023-04-25T04:35:12.007Z,2.70
2023-04-25T04:36:34.438Z,3.23
2023-04-25T04:37:57.079Z,3.30
2023-04-25T04:39:19.153Z,3.47
2023-04-25T04:40:41.903Z,3.50
2023-04-25T04:42:04.341Z,3.47
2023-04-25T04:43:26.370Z,3.80
2023-04-25T04:44:48.364Z,3.60
2023-04-25T04:46:11.209Z,3.20
2023-04-25T04:47:33.558Z,3.60
2023-04-25T04:48:57.348Z,3.97
2023-04-25T04:50:19.987Z,3.90
2023-04-25T04:51:42.183Z,3.70
2023-04-25T04:53:05.574Z,4.03
2023-04-25T04:54:28.012Z,3.60
2023-04-25T04:55:50.699Z,3.67
2023-04-25T04:57:12.720Z,4.10
2023-04-25T04:58:35.203Z,3.63
2023-04-25T04:59:57.573Z,3.00
2023-04-25T05:01:19.708Z,3.00
2023-04-25T05:02:41.898Z,2.83
2023-04-25T05:04:04.944Z,3.40
2023-04-25T05:05:27.168Z,3.50
2023-04-25T05:06:49.350Z,3.00
2023-04-25T05:08:11.561Z,3.30
2023-04-25T05:09:33.597Z,2.70
2023-04-25T05:10:55.769Z,2.90
2023-04-25T05:12:17.814Z,3.40
2023-04-25T05:13:39.927Z,3.13
2023-04-25T05:15:01.992Z,3.27
2023-04-25T05:16:24.446Z,2.70
2023-04-25T05:17:46.966Z,3.77
2023-04-25T05:19:09.101Z,3.50
2023-04-25T05:20:31.158Z,3.30
2023-04-25T05:21:53.936Z,2.77
2023-04-25T05:23:16.394Z,2.60
2023-04-25T05:24:38.592Z,2.50
2023-04-25T05:26:00.792Z,2.80
2023-04-25T05:27:22.851Z,2.47
2023-04-25T05:28:44.887Z,2.87
2023-04-25T05:30:08.039Z,2.43
2023-04-25T05:31:30.327Z,2.40
2023-04-25T05:32:52.467Z,2.90
2023-04-25T05:34:14.636Z,2.50
2023-04-25T05:35:36.702Z,3.30
2023-04-25T05:36:58.786Z,3.30
2023-04-25T05:38:20.998Z,2.73
2023-04-25T05:39:43.024Z,3.93
2023-04-25T05:41:05.146Z,2.80
2023-04-25T05:42:27.216Z,2.73
2023-04-25T05:43:50.646Z,3.23
2023-04-25T05:45:13.878Z,2.43
2023-04-25T05:46:35.979Z,2.97
2023-04-25T05:47:58.016Z,3.30
2023-04-25T05:49:20.232Z,2.60
2023-04-25T05:50:42.312Z,3.50
2023-04-25T05:52:04.454Z,3.63
2023-04-25T05:53:26.478Z,2.27
2023-04-25T05:54:48.550Z,2.60
2023-04-25T05:56:10.744Z,2.97
2023-04-25T05:57:33.048Z,2.70
2023-04-25T05:58:55.143Z,2.57
2023-04-25T06:00:17.381Z,3.10
2023-04-25T06:01:39.497Z,3.33
2023-04-25T06:03:02.419Z,3.77
2023-04-25T06:04:26.589Z,3.07
2023-04-25T06:05:48.907Z,2.77
2023-04-25T06:07:11.146Z,3.40
2023-04-25T06:08:33.237Z,2.50
2023-04-25T06:09:55.286Z,3.10
2023-04-25T06:11:17.393Z,2.43
2023-04-25T06:12:39.578Z,3.00
2023-04-25T06:14:01.936Z,3.40
2023-04-25T06:15:28.511Z,2.60
2023-04-25T06:16:51.108Z,2.97
2023-04-25T06:18:13.261Z,2.43
2023-04-25T06:19:36.563Z,2.97
2023-04-25T06:20:58.645Z,3.67
2023-04-25T06:22:20.748Z,2.80
2023-04-25T06:23:42.850Z,3.30
2023-04-25T06:25:05.399Z,3.43
2023-04-25T06:26:27.538Z,3.40
2023-04-25T06:27:49.635Z,3.40
2023-04-25T06:29:11.689Z,2.70
2023-04-25T06:30:33.731Z,2.93
2023-04-25T06:31:55.759Z,3.43
2023-04-25T06:33:17.888Z,2.87
2023-04-25T06:34:39.971Z,2.97
2023-04-25T06:36:02.036Z,3.17
2023-04-25T06:37:24.148Z,2.57
2023-04-25T06:38:46.437Z,2.80
2023-04-25T06:40:09.157Z,2.60
2023-04-25T06:41:31.350Z,3.20
2023-04-25T06:42:53.361Z,3.00
2023-04-25T06:44:16.276Z,3.13
2023-04-25T06:45:38.363Z,3.07
2023-04-25T06:47:00.502Z,2.63
2023-04-25T06:48:22.591Z,3.03
2023-04-25T06:49:44.649Z,3.53
2023-04-25T06:51:06.730Z,2.30
2023-04-25T06:52:28.848Z,3.27
2023-04-25T06:53:51.143Z,3.27
2023-04-25T06:55:13.184Z,2.53
2023-04-25T06:56:35.447Z,3.30
2023-04-25T06:57:57.564Z,2.70
2023-04-25T06:59:19.618Z,3.63
2023-04-25T07:00:41.679Z,3.40
2023-04-25T07:02:04.598Z,3.30
2023-04-25T07:03:26.864Z,3.13
2023-04-25T07:04:49.333Z,4.50
2023-04-25T07:06:11.497Z,3.90
2023-04-25T07:07:33.566Z,2.63
2023-04-25T07:08:56.709Z,3.53
2023-04-25T07:10:18.792Z,3.13
2023-04-25T07:11:40.823Z,2.90
2023-04-25T07:13:02.890Z,2.60
2023-04-25T07:14:25.254Z,2.53
2023-04-25T07:15:49.049Z,3.30
2023-04-25T07:17:11.114Z,2.90
2023-04-25T07:18:33.156Z,2.60
2023-04-25T07:19:55.303Z,2.97
2023-04-25T07:21:17.361Z,2.40
2023-04-25T07:22:39.730Z,2.30
2023-04-25T07:24:01.800Z,3.60
2023-04-25T07:25:24.031Z,2.70
2023-04-25T07:26:46.497Z,2.90
2023-04-25T07:28:08.622Z,3.27
2023-04-25T07:29:31.880Z,2.87
2023-04-25T07:30:53.995Z,2.93
2023-04-25T07:32:16.210Z,3.40
2023-04-25T07:33:38.413Z,2.73
2023-04-25T07:35:00.511Z,3.03
2023-04-25T07:36:22.561Z,3.90
2023-04-25T07:37:44.628Z,2.97
2023-04-25T07:39:07.464Z,2.60
2023-04-25T07:40:29.606Z,3.20
2023-04-25T07:41:54.471Z,3.63
2023-04-25T07:43:17.844Z,3.27
2023-04-25T07:44:41.060Z,2.70
2023-04-25T07:46:03.819Z,2.93
2023-04-25T07:47:26.496Z,3.20
2023-04-25T07:48:49.331Z,3.83
2023-04-25T07:50:11.979Z,2.97
2023-04-25T07:51:34.061Z,3.47
2023-04-25T07:52:56.548Z,2.97
2023-04-25T07:54:18.621Z,2.83
2023-04-25T07:55:41.195Z,3.13
2023-04-25T07:57:03.428Z,2.97
2023-04-25T07:58:25.621Z,3.10
2023-04-25T07:59:47.715Z,3.50
2023-04-25T08:01:09.835Z,3.47
2023-04-25T08:02:32.014Z,3.03
2023-04-25T08:03:54.723Z,2.83
2023-04-25T08:05:18.949Z,3.03
2023-04-25T08:06:42.773Z,2.67
2023-04-25T08:08:07.319Z,3.67
2023-04-25T08:09:30.324Z,4.00
2023-04-25T08:10:52.440Z,2.90
2023-04-25T08:12:14.576Z,2.70
2023-04-25T08:13:36.664Z,2.80
2023-04-25T08:14:58.779Z,2.20
2023-04-25T08:16:20.923Z,2.67
2023-04-25T08:17:44.875Z,3.03
2023-04-25T08:19:07.250Z,3.17
2023-04-25T08:20:29.474Z,2.53
2023-04-25T08:21:52.806Z,2.80
2023-04-25T08:23:15.283Z,2.30
2023-04-25T08:24:39.378Z,3.20
2023-04-25T08:26:01.875Z,2.90
2023-04-25T08:27:24.651Z,2.33
2023-04-25T08:28:47.463Z,2.33
2023-04-25T08:30:09.936Z,2.57
2023-04-25T08:31:32.195Z,2.50
2023-04-25T08:32:54.428Z,2.97
2023-04-25T08:34:16.815Z,2.93
2023-04-25T08:35:38.904Z,2.97
2023-04-25T08:37:00.996Z,3.10
2023-04-25T08:38:23.340Z,2.77
2023-04-25T08:39:46.139Z,2.40
2023-04-25T08:41:08.368Z,2.97
2023-04-25T08:42:33.936Z,3.73
2023-04-25T08:43:58.200Z,2.50
2023-04-25T08:45:20.666Z,2.60
2023-04-25T08:46:43.224Z,3.10
2023-04-25T08:48:06.564Z,3.00
2023-04-25T08:49:29.490Z,2.83
2023-04-25T08:50:53.670Z,2.90
2023-04-25T08:52:21.128Z,3.10
2023-04-25T08:53:46.344Z,3.63
2023-04-25T08:55:12.720Z,2.43
2023-04-25T08:56:36.010Z,2.27
2023-04-25T08:58:00.596Z,2.60
2023-04-25T08:59:24.115Z,3.70
2023-04-25T09:00:48.724Z,3.47
2023-04-25T09:02:15.499Z,2.70
2023-04-25T09:03:38.151Z,2.77
2023-04-25T09:05:00.686Z,3.20
2023-04-25T09:06:23.749Z,3.37
2023-04-25T09:07:45.809Z,2.70
2023-04-25T09:09:10.035Z,3.10
2023-04-25T09:11:56.024Z,3.20
2023-04-25T09:13:27.054Z,2.90
2023-04-25T09:15:10.380Z,2.47
2023-04-25T09:16:33.657Z,3.17
2023-04-25T09:18:00.370Z,2.77
2023-04-25T09:21:14.996Z,3.03
2023-04-25T09:22:38.376Z,2.30
2023-04-25T09:24:00.665Z,3.13
2023-04-25T09:25:22.924Z,3.07
2023-04-25T09:26:45.137Z,3.53
2023-04-25T09:28:08.344Z,3.23
2023-04-25T09:29:32.186Z,3.07
2023-04-25T09:31:00.883Z,2.80
2023-04-25T09:32:25.013Z,3.23
2023-04-25T09:33:47.169Z,3.00
2023-04-25T09:35:09.659Z,2.60
2023-04-25T09:36:31.836Z,2.00
2023-04-25T09:37:53.921Z,2.50
2023-04-25T09:39:20.529Z,2.80
2023-04-25T09:40:46.094Z,3.00
2023-04-25T09:42:10.452Z,2.50
2023-04-25T09:43:32.504Z,2.90
2023-04-25T09:44:55.895Z,2.53
2023-04-25T09:46:19.700Z,2.20
2023-04-25T09:47:42.000Z,3.17
2023-04-25T09:49:08.880Z,2.57
2023-04-25T09:50:31.058Z,1.80
2023-04-25T09:51:58.046Z,2.47
2023-04-25T09:53:20.127Z,2.63
2023-04-25T09:54:42.502Z,2.43
2023-04-25T09:56:09.668Z,2.57
2023-04-25T09:57:32.028Z,2.30
2023-04-25T09:58:55.974Z,2.57
2023-04-25T10:00:19.305Z,2.30
2023-04-25T10:01:42.384Z,3.00
2023-04-25T10:03:06.634Z,2.77
2023-04-25T10:04:34.022Z,2.23
2023-04-25T10:05:57.617Z,2.07
2023-04-25T10:07:22.306Z,2.87
2023-04-25T10:08:45.266Z,2.50
2023-04-25T10:10:08.037Z,2.80
2023-04-25T10:11:31.501Z,2.63
2023-04-25T10:12:54.279Z,2.70
2023-04-25T10:14:17.509Z,3.10
2023-04-25T10:15:40.488Z,3.30
2023-04-25T10:17:02.952Z,3.13
2023-04-25T10:18:27.526Z,3.07
2023-04-25T10:19:50.712Z,2.37
2023-04-25T10:21:14.082Z,2.87
2023-04-25T10:22:58.981Z,2.30
2023-04-25T10:24:21.886Z,2.90
2023-04-25T10:25:44.907Z,2.83
2023-04-25T10:27:07.823Z,2.20
2023-04-25T10:28:30.160Z,2.30
2023-04-25T10:30:05.187Z,2.37
2023-04-25T10:31:27.628Z,2.87
2023-04-25T10:32:55.540Z,2.20
2023-04-25T10:34:18.633Z,1.97
2023-04-25T10:35:41.366Z,2.73
2023-04-25T10:37:04.582Z,2.23
2023-04-25T10:38:27.478Z,2.80
2023-04-25T10:39:49.604Z,2.27
2023-04-25T10:41:13.036Z,2.20
2023-04-25T10:42:35.096Z,2.73
2023-04-25T10:44:06.611Z,2.87
2023-04-25T10:45:28.714Z,2.70
2023-04-25T10:46:50.910Z,2.87
2023-04-25T10:48:29.864Z,1.80
2023-04-25T10:49:52.098Z,2.33
2023-04-25T10:51:24.436Z,1.73
2023-04-25T10:52:46.482Z,2.10
2023-04-25T10:54:09.798Z,2.10
2023-04-25T10:55:50.920Z,1.87
2023-04-25T10:57:32.487Z,2.37
2023-04-25T10:59:14.275Z,2.30
2023-04-25T11:00:53.232Z,2.30
2023-04-25T11:02:19.620Z,2.60
2023-04-25T11:03:46.641Z,2.00
2023-04-25T11:05:09.449Z,2.33
2023-04-25T11:06:53.799Z,2.17
2023-04-25T11:08:28.972Z,2.67
2023-04-25T11:09:51.204Z,2.23
2023-04-25T11:11:13.747Z,2.20
2023-04-25T11:12:36.163Z,2.73
2023-04-25T11:13:58.447Z,2.57
2023-04-25T11:15:20.656Z,2.37
2023-04-25T11:16:42.782Z,3.20
2023-04-25T11:18:05.068Z,3.40
2023-04-25T11:19:27.933Z,4.67
2023-04-25T11:20:50.835Z,3.17
2023-04-25T11:22:13.507Z,2.50
2023-04-25T11:23:35.693Z,2.50
2023-04-25T11:24:57.793Z,2.33
2023-04-25T11:26:21.391Z,2.00
2023-04-25T11:27:56.954Z,3.10
2023-04-25T11:29:19.026Z,2.43
2023-04-25T11:30:41.219Z,2.87
2023-04-25T11:32:03.600Z,3.20
2023-04-25T11:33:26.842Z,2.70
2023-04-25T11:34:48.960Z,3.30
2023-04-25T11:36:11.156Z,2.47
2023-04-25T11:37:35.059Z,2.30
2023-04-25T11:38:57.275Z,2.00
2023-04-25T11:40:19.549Z,2.07
2023-04-25T11:41:44.486Z,2.43
2023-04-25T11:43:08.269Z,2.30
2023-04-25T11:44:31.553Z,3.30
2023-04-25T11:45:53.713Z,3.70
2023-04-25T11:47:16.013Z,2.70
2023-04-25T11:48:42.236Z,2.27
2023-04-25T11:50:06.651Z,2.97
2023-04-25T11:51:28.728Z,2.33
2023-04-25T11:52:51.214Z,2.97
2023-04-25T11:54:13.563Z,2.40
2023-04-25T11:55:36.981Z,2.60
2023-04-25T11:56:59.234Z,2.73
2023-04-25T11:58:21.402Z,2.17
2023-04-25T11:59:43.480Z,2.43
2023-04-25T12:01:05.810Z,2.80
2023-04-25T12:02:28.362Z,2.73
2023-04-25T12:03:50.670Z,2.10
2023-04-25T12:05:30.559Z,2.40
2023-04-25T12:06:55.916Z,2.63
2023-04-25T12:08:18.214Z,2.10
2023-04-25T12:09:41.500Z,3.00
2023-04-25T12:11:04.335Z,1.90
2023-04-25T12:12:33.809Z,2.10
2023-04-25T12:13:56.489Z,2.10
2023-04-25T12:15:24.528Z,1.90
2023-04-25T12:16:47.966Z,2.30
2023-04-25T12:18:10.083Z,2.00
2023-04-25T12:19:36.749Z,2.10
2023-04-25T12:20:59.507Z,1.87
2023-04-25T12:22:24.059Z,1.80
2023-04-25T12:23:46.068Z,1.73
2023-04-25T12:25:08.959Z,2.23
2023-04-25T12:26:49.962Z,2.30
2023-04-25T12:28:24.567Z,2.23
2023-04-25T12:29:54.483Z,1.93
2023-04-25T12:31:17.314Z,2.37
2023-04-25T12:32:39.579Z,1.67
2023-04-25T12:34:01.862Z,2.47
2023-04-25T12:35:23.938Z,1.80
2023-04-25T12:36:46.482Z,2.10
2023-04-25T12:38:08.583Z,2.00
2023-04-25T12:39:30.639Z,2.30
2023-04-25T12:40:53.199Z,1.93
2023-04-25T12:42:15.448Z,1.70
2023-04-25T12:43:37.629Z,2.30
2023-04-25T12:44:59.622Z,2.27
2023-04-25T12:46:21.786Z,2.20
2023-04-25T12:47:43.949Z,2.43
2023-04-25T12:49:17.726Z,1.97
2023-04-25T12:50:42.084Z,2.00
2023-04-25T12:52:04.520Z,2.10
2023-04-25T12:53:26.794Z,2.70
2023-04-25T12:54:48.907Z,2.03
2023-04-25T12:56:11.069Z,2.60
2023-04-25T12:57:33.141Z,2.50
2023-04-25T12:58:55.330Z,1.90
2023-04-25T13:00:19.255Z,2.53
2023-04-25T13:01:41.625Z,2.27
2023-04-25T13:03:04.367Z,2.80
2023-04-25T13:04:26.726Z,2.63
2023-04-25T13:05:48.963Z,1.90
2023-04-25T13:07:10.999Z,2.47
2023-04-25T13:08:33.262Z,1.90
2023-04-25T13:09:55.328Z,2.87
2023-04-25T13:11:17.492Z,3.57
2023-04-25T13:12:39.528Z,2.37
2023-04-25T13:14:01.982Z,2.40
2023-04-25T13:15:24.095Z,1.97
2023-04-25T13:16:46.953Z,2.30
2023-04-25T13:18:09.148Z,2.30
2023-04-25T13:19:31.764Z,2.10
2023-04-25T13:20:54.319Z,2.10
2023-04-25T13:22:17.940Z,2.60
2023-04-25T13:23:40.140Z,2.43
2023-04-25T13:25:02.152Z,1.97
2023-04-25T13:26:24.307Z,2.73
2023-04-25T13:27:47.403Z,2.40
2023-04-25T13:29:10.614Z,2.00
2023-04-25T13:30:32.658Z,2.20
2023-04-25T13:31:54.742Z,2.67
2023-04-25T13:33:16.913Z,2.07
2023-04-25T13:34:38.919Z,1.80
2023-04-25T13:36:02.003Z,2.07
2023-04-25T13:37:25.247Z,2.67
2023-04-25T13:38:48.715Z,2.23
2023-04-25T13:40:12.212Z,2.63
2023-04-25T13:41:34.336Z,2.10
2023-04-25T13:42:57.236Z,2.47
2023-04-25T13:44:19.319Z,2.10
2023-04-25T13:45:48.309Z,2.13
2023-04-25T13:47:10.535Z,2.00
2023-04-25T13:48:32.693Z,2.00
2023-04-25T13:49:55.551Z,2.40
2023-04-25T13:51:18.538Z,2.10
2023-04-25T13:52:41.318Z,1.97
2023-04-25T13:54:03.449Z,1.83
2023-04-25T13:55:25.757Z,2.00
2023-04-25T13:56:47.929Z,1.90
2023-04-25T13:58:10.898Z,1.57
2023-04-25T13:59:33.677Z,1.20
2023-04-25T14:00:55.723Z,1.90
2023-04-25T14:02:17.814Z,1.80
2023-04-25T14:03:40.013Z,2.00
2023-04-25T14:05:03.240Z,1.80
2023-04-25T14:06:26.220Z,1.77
2023-04-25T14:07:48.371Z,2.00
2023-04-25T14:09:11.369Z,1.60
2023-04-25T14:10:33.507Z,2.33
2023-04-25T14:11:57.272Z,1.77
2023-04-25T14:13:19.301Z,1.93
2023-04-25T14:14:41.317Z,1.90
2023-04-25T14:16:03.544Z,2.10
2023-04-25T14:17:25.845Z,2.47
2023-04-25T14:18:47.871Z,2.47
2023-04-25T14:20:11.861Z,2.20
2023-04-25T14:21:33.991Z,1.83
2023-04-25T14:22:58.061Z,2.13
2023-04-25T14:24:20.425Z,3.70
2023-04-25T14:25:43.198Z,2.70
2023-04-25T14:27:05.362Z,2.80
2023-04-25T14:28:27.417Z,3.17
2023-04-25T14:29:49.437Z,3.67
2023-04-25T14:31:11.621Z,1.90
2023-04-25T14:32:33.816Z,2.50
2023-04-25T14:33:58.547Z,2.20
2023-04-25T14:35:22.184Z,2.33
2023-04-25T14:36:44.337Z,1.77
2023-04-25T14:38:06.834Z,1.60
2023-04-25T14:39:28.946Z,2.17
2023-04-25T14:40:51.346Z,1.93
2023-04-25T14:42:13.419Z,2.00
2023-04-25T14:43:35.704Z,1.90
2023-04-25T14:44:57.723Z,1.97
2023-04-25T14:46:21.480Z,1.80
2023-04-25T14:47:43.735Z,2.33
2023-04-25T14:49:06.365Z,2.00
2023-04-25T14:50:28.497Z,1.70
2023-04-25T14:51:51.923Z,1.67
2023-04-25T14:53:14.139Z,1.87
2023-04-25T14:54:36.259Z,2.00
2023-04-25T14:55:58.611Z,2.47
2023-04-25T14:57:20.972Z,1.80
2023-04-25T14:58:42.989Z,2.60
2023-04-25T15:00:07.909Z,1.57
2023-04-25T15:01:30.113Z,2.07
2023-04-25T15:02:52.784Z,2.03
2023-04-25T15:04:15.304Z,1.70
2023-04-25T15:05:37.471Z,2.00
2023-04-25T15:07:00.030Z,1.47
2023-04-25T15:08:22.403Z,2.13
2023-04-25T15:09:44.502Z,1.73
2023-04-25T15:11:06.575Z,2.23
2023-04-25T15:12:29.255Z,1.90
2023-04-25T15:13:51.534Z,1.80
2023-04-25T15:15:17.568Z,1.97
2023-04-25T15:16:47.394Z,2.67
2023-04-25T15:18:09.498Z,2.10
2023-04-25T15:19:31.758Z,2.23
2023-04-25T15:20:54.434Z,1.70
2023-04-25T15:22:16.731Z,2.80
2023-04-25T15:23:39.121Z,1.60
2023-04-25T15:25:01.472Z,1.60
2023-04-25T15:26:23.764Z,2.15
2023-04-25T15:27:47.572Z,1.80
2023-04-25T15:29:09.856Z,1.80
2023-04-25T15:30:31.909Z,2.23
2023-04-25T15:31:54.332Z,2.77
2023-04-25T15:33:16.461Z,2.20
2023-04-25T15:34:38.654Z,1.57
2023-04-25T15:36:00.884Z,2.13
2023-04-25T15:37:22.898Z,2.00
2023-04-25T15:38:45.009Z,2.83
2023-04-25T15:40:13.735Z,1.80
2023-04-25T15:41:37.432Z,1.80
2023-04-25T15:42:59.741Z,1.70
2023-04-25T15:44:21.966Z,1.90
2023-04-25T15:45:44.240Z,2.50
2023-04-25T15:47:06.770Z,1.67
2023-04-25T15:48:28.845Z,1.97
2023-04-25T15:49:50.876Z,1.83
2023-04-25T15:51:12.925Z,2.13
2023-04-25T15:52:36.467Z,1.90
2023-04-25T15:53:58.580Z,2.10
2023-04-25T15:55:26.642Z,2.03
2023-04-25T15:56:48.744Z,2.03
2023-04-25T15:58:13.005Z,1.80
2023-04-25T15:59:35.554Z,2.40
2023-04-25T16:00:57.712Z,2.27
2023-04-25T16:02:20.155Z,1.83
2023-04-25T16:03:42.356Z,2.10
2023-04-25T16:05:04.972Z,2.10
2023-04-25T16:06:27.503Z,2.00
2023-04-25T16:07:50.216Z,1.97
2023-04-25T16:09:12.622Z,2.40
2023-04-25T16:10:34.810Z,1.50
2023-04-25T16:11:57.100Z,1.43
2023-04-25T16:13:19.146Z,1.83
2023-04-25T16:14:41.629Z,1.93
2023-04-25T16:16:03.995Z,1.80
2023-04-25T16:17:28.150Z,1.70
2023-04-25T16:18:50.335Z,2.00
2023-04-25T16:20:13.518Z,2.33
2023-04-25T16:21:36.012Z,2.17
2023-04-25T16:22:58.072Z,2.00
2023-04-25T16:24:20.544Z,2.10
2023-04-25T16:25:43.074Z,2.20
2023-04-25T16:27:05.210Z,2.20
2023-04-25T16:28:27.359Z,2.40
2023-04-25T16:29:51.338Z,2.23
2023-04-25T16:31:13.740Z,2.10
2023-04-25T16:32:36.452Z,1.50
2023-04-25T16:33:58.592Z,1.73
2023-04-25T16:35:21.038Z,2.23
2023-04-25T16:36:43.194Z,2.27
2023-04-25T16:38:05.381Z,1.77
2023-04-25T16:39:27.445Z,2.07
2023-04-25T16:40:49.618Z,1.80
2023-04-25T16:42:11.780Z,2.37
2023-04-25T16:43:33.948Z,2.47
2023-04-25T16:44:55.997Z,2.13
2023-04-25T16:46:21.602Z,2.33
2023-04-25T16:47:43.788Z,2.40
2023-04-25T16:49:06.439Z,2.30
2023-04-25T16:50:28.598Z,3.07
2023-04-25T16:51:50.969Z,3.83
2023-04-25T16:53:12.996Z,2.87
2023-04-25T16:54:35.089Z,2.47
2023-04-25T16:55:57.242Z,2.10
2023-04-25T16:57:19.352Z,2.60
2023-04-25T16:58:41.451Z,2.17
2023-04-25T17:00:05.700Z,2.70
2023-04-25T17:01:28.101Z,3.07
2023-04-25T17:02:50.403Z,2.23
2023-04-25T17:04:12.884Z,2.40
2023-04-25T17:05:35.548Z,2.80
2023-04-25T17:06:57.571Z,1.90
2023-04-25T17:08:19.762Z,2.70
2023-04-25T17:09:41.907Z,2.63
2023-04-25T17:11:03.983Z,2.57
2023-04-25T17:12:26.272Z,2.73
2023-04-25T17:13:48.385Z,2.10
2023-04-25T17:15:10.865Z,2.10
2023-04-25T17:16:37.748Z,2.35
2023-04-25T17:18:02.607Z,2.57
2023-04-25T17:19:24.831Z,1.97
2023-04-25T17:20:46.980Z,4.20
2023-04-25T17:22:09.309Z,4.30
2023-04-25T17:23:32.372Z,3.40
2023-04-25T17:24:54.861Z,3.10
2023-04-25T17:26:17.051Z,2.67
2023-04-25T17:27:39.128Z,1.63
2023-04-25T17:29:01.186Z,2.67
2023-04-25T17:30:23.782Z,2.70
2023-04-25T17:31:46.355Z,2.80
2023-04-25T17:33:09.350Z,3.00
2023-04-25T17:34:31.853Z,2.43
2023-04-25T17:35:54.366Z,1.93
2023-04-25T17:37:17.403Z,1.87
2023-04-25T17:38:39.498Z,3.27
2023-04-25T17:40:02.065Z,2.37
2023-04-25T17:41:24.208Z,2.10
2023-04-25T17:42:46.355Z,2.47
2023-04-25T17:44:08.545Z,3.30
2023-04-25T17:45:34.669Z,2.80
2023-04-25T17:46:56.792Z,2.07
2023-04-25T17:48:18.970Z,2.50
2023-04-25T17:49:41.183Z,2.33
2023-04-25T17:51:03.369Z,2.33
2023-04-25T17:52:25.861Z,1.87
2023-04-25T17:53:48.150Z,1.47
2023-04-25T17:55:10.589Z,1.73
2023-04-25T17:56:36.428Z,1.90
2023-04-25T17:57:58.536Z,2.53
2023-04-25T17:59:21.428Z,3.30
2023-04-25T18:00:43.652Z,2.20
2023-04-25T18:02:05.840Z,1.90
2023-04-25T18:03:28.064Z,1.97
2023-04-25T18:04:50.255Z,2.63
2023-04-25T18:06:12.754Z,4.17
2023-04-25T18:07:38.042Z,2.77
2023-04-25T18:09:01.942Z,1.80
2023-04-25T18:10:24.241Z,1.83
2023-04-25T18:11:47.177Z,2.20
2023-04-25T18:13:09.405Z,2.00
2023-04-25T18:14:33.735Z,2.27
2023-04-25T18:15:56.807Z,2.63
2023-04-25T18:17:19.071Z,2.40
2023-04-25T18:18:43.205Z,3.47
2023-04-25T18:20:11.771Z,2.37
2023-04-25T18:21:34.287Z,2.63
2023-04-25T18:22:56.520Z,2.50
2023-04-25T18:24:19.610Z,2.30
2023-04-25T18:25:41.828Z,1.87
2023-04-25T18:27:06.168Z,2.27
2023-04-25T18:28:29.047Z,2.50
2023-04-25T18:29:51.301Z,1.80